createdAt,value
2019-02-10T00:00:28.594Z,87.20
2019-02-10T00:02:58.602Z,86.99
2019-02-10T00:05:29.088Z,86.96
2019-02-10T00:07:59.113Z,87.03
2019-02-10T00:10:29.225Z,87.40
2019-02-10T00:13:22.297Z,87.10
2019-02-10T00:15:52.350Z,87.41
2019-02-10T00:18:22.354Z,86.99
2019-02-10T00:20:52.372Z,87.31
2019-02-10T00:23:22.439Z,87.11
2019-02-10T00:25:52.445Z,87.29
2019-02-10T00:28:22.543Z,87.25
2019-02-10T00:30:52.569Z,87.17
2019-02-10T00:33:22.555Z,87.21
2019-02-10T00:35:52.569Z,87.14
2019-02-10T00:38:22.531Z,87.07
2019-02-10T00:40:52.627Z,86.58
2019-02-10T00:43:22.621Z,87.09
2019-02-10T00:45:52.657Z,87.21
2019-02-10T00:48:22.627Z,87.69
2019-02-10T00:50:52.936Z,87.36
2019-02-10T00:53:22.926Z,87.54
2019-02-10T00:55:52.888Z,87.91
2019-02-10T00:58:22.852Z,87.89
2019-02-10T01:00:52.840Z,88.00
2019-02-10T01:03:23.041Z,88.07
2019-02-10T01:05:53.002Z,87.76
2019-02-10T01:08:22.986Z,88.02
2019-02-10T01:10:53.246Z,88.22
2019-02-10T01:13:23.540Z,88.06
2019-02-10T01:15:53.608Z,88.12
2019-02-10T01:18:23.783Z,88.70
2019-02-10T01:20:54.342Z,88.32
2019-02-10T01:23:27.359Z,88.51
2019-02-10T01:25:57.423Z,88.24
2019-02-10T01:28:27.485Z,88.55
2019-02-10T01:30:57.528Z,88.63
2019-02-10T01:33:27.680Z,88.71
2019-02-10T01:35:57.658Z,88.48
2019-02-10T01:38:27.723Z,88.37
2019-02-10T01:40:57.740Z,88.11
2019-02-10T01:43:27.795Z,88.30
2019-02-10T01:45:57.816Z,88.50
2019-02-10T01:48:27.879Z,89.08
2019-02-10T01:50:57.908Z,89.29
2019-02-10T01:53:27.908Z,89.61
2019-02-10T01:55:57.864Z,89.44
2019-02-10T01:58:28.157Z,89.63
2019-02-10T02:00:58.203Z,89.84
2019-02-10T02:03:28.387Z,90.16
2019-02-10T02:05:58.330Z,90.36
2019-02-10T02:08:28.303Z,90.29
2019-02-10T02:10:58.252Z,90.27
2019-02-10T02:13:28.229Z,90.68
2019-02-10T02:15:58.181Z,90.66
2019-02-10T02:18:28.213Z,90.51
2019-02-10T02:20:58.159Z,90.54
2019-02-10T02:23:28.141Z,90.27
2019-02-10T02:25:58.173Z,90.17
2019-02-10T02:28:28.238Z,90.36
2019-02-10T02:30:58.198Z,90.28
2019-02-10T02:33:28.176Z,90.89
2019-02-10T02:35:58.136Z,90.83
2019-02-10T02:38:28.148Z,90.42
2019-02-10T02:40:58.117Z,90.38
2019-02-10T02:43:28.092Z,90.43
2019-02-10T02:45:58.050Z,90.44
2019-02-10T02:48:28.001Z,89.96
2019-02-10T02:50:58.050Z,90.19
2019-02-10T02:53:28.070Z,90.14
2019-02-10T02:55:58.008Z,90.30
2019-02-10T02:58:27.981Z,90.15
2019-02-10T03:00:58.252Z,90.57
2019-02-10T03:03:28.322Z,90.55
2019-02-10T03:05:58.281Z,90.66
2019-02-10T03:08:28.247Z,90.84
2019-02-10T03:10:58.192Z,90.83
2019-02-10T03:13:28.167Z,90.74
2019-02-10T03:15:58.121Z,91.27
2019-02-10T03:18:28.128Z,90.59
2019-02-10T03:20:58.118Z,91.10
2019-02-10T03:23:28.113Z,91.23
2019-02-10T03:25:58.123Z,90.81
2019-02-10T03:28:28.118Z,90.73
2019-02-10T03:30:58.057Z,91.48
2019-02-10T03:33:28.017Z,91.15
2019-02-10T03:35:57.995Z,91.04
2019-02-10T03:38:27.951Z,90.60
2019-02-10T03:40:57.929Z,91.13
2019-02-10T03:43:28.000Z,91.50
2019-02-10T03:45:57.985Z,91.13
2019-02-10T03:48:27.970Z,91.11
2019-02-10T03:50:57.950Z,91.23
2019-02-10T03:53:27.973Z,91.04
2019-02-10T03:55:57.943Z,90.96
2019-02-10T03:58:27.953Z,91.01
2019-02-10T04:00:57.922Z,91.05
2019-02-10T04:03:27.869Z,91.03
2019-02-10T04:05:57.963Z,90.88
2019-02-10T04:08:27.916Z,90.75
2019-02-10T04:10:58.025Z,90.79
2019-02-10T04:13:27.967Z,90.81
2019-02-10T04:15:57.981Z,90.52
2019-02-10T04:18:27.926Z,90.45
2019-02-10T04:20:57.891Z,90.84
2019-02-10T04:23:27.835Z,90.82
2019-02-10T04:25:57.812Z,90.68
2019-02-10T04:28:27.868Z,90.52
2019-02-10T04:30:57.836Z,90.55
2019-02-10T04:33:27.838Z,90.24
2019-02-10T04:35:57.826Z,90.29
2019-02-10T04:38:27.843Z,90.12
2019-02-10T04:40:57.815Z,89.95
2019-02-10T04:43:27.827Z,90.22
2019-02-10T04:45:57.825Z,90.08
2019-02-10T04:48:27.774Z,90.22
2019-02-10T04:50:57.767Z,90.31
2019-02-10T04:53:27.751Z,90.23
2019-02-10T04:56:14.940Z,90.09
2019-02-10T04:58:44.916Z,90.14
2019-02-10T05:01:14.857Z,90.15
2019-02-10T05:03:44.851Z,89.73
2019-02-10T05:06:14.812Z,89.73
2019-02-10T05:08:44.855Z,89.41
2019-02-10T05:11:15.555Z,89.85
2019-02-10T05:13:45.505Z,89.78
2019-02-10T05:16:15.500Z,89.69
2019-02-10T05:18:45.456Z,89.34
2019-02-10T05:21:15.442Z,89.36
2019-02-10T05:23:45.426Z,89.54
2019-02-10T05:26:15.405Z,89.67
2019-02-10T05:28:45.354Z,89.52
2019-02-10T05:31:15.369Z,89.49
2019-02-10T05:33:45.305Z,89.81
2019-02-10T05:36:15.478Z,89.83
2019-02-10T05:38:45.430Z,90.08
2019-02-10T05:41:15.424Z,90.01
2019-02-10T05:43:45.378Z,90.07
2019-02-10T05:46:15.363Z,90.12
2019-02-10T05:48:45.313Z,90.16
2019-02-10T05:51:15.282Z,89.97
2019-02-10T05:53:45.270Z,90.25
2019-02-10T05:56:15.234Z,90.25
2019-02-10T05:58:45.228Z,90.12
2019-02-10T06:01:51.137Z,90.55
2019-02-10T06:04:21.088Z,90.73
2019-02-10T06:06:51.149Z,90.35
2019-02-10T06:09:21.143Z,91.02
2019-02-10T06:11:51.142Z,90.74
2019-02-10T06:14:21.118Z,90.91
2019-02-10T06:16:51.070Z,90.98
2019-02-10T06:19:21.045Z,90.97
2019-02-10T06:21:51.004Z,91.16
2019-02-10T06:24:21.015Z,91.51
2019-02-10T06:26:50.963Z,91.73
2019-02-10T06:29:20.953Z,91.75
2019-02-10T06:31:50.921Z,91.55
2019-02-10T06:34:20.894Z,92.20
2019-02-10T06:36:50.853Z,92.29
2019-02-10T06:39:20.845Z,92.73
2019-02-10T06:41:50.803Z,92.74
2019-02-10T06:44:20.779Z,93.29
2019-02-10T06:46:50.740Z,92.95
2019-02-10T06:49:20.713Z,93.26
2019-02-10T06:51:50.721Z,93.52
2019-02-10T06:54:20.663Z,93.25
2019-02-10T06:56:50.653Z,93.78
2019-02-10T06:59:42.490Z,93.94
2019-02-10T07:02:30.262Z,94.21
2019-02-10T07:05:00.273Z,94.65
2019-02-10T07:07:30.295Z,95.00
2019-02-10T07:10:00.279Z,94.77
2019-02-10T07:12:49.996Z,94.94
2019-02-10T07:15:55.769Z,94.84
2019-02-10T07:19:02.785Z,95.02
2019-02-10T07:21:36.365Z,95.60
2019-02-10T07:24:42.251Z,95.83
2019-02-10T07:27:18.499Z,96.11
2019-02-10T07:30:16.782Z,95.85
2019-02-10T07:32:49.931Z,95.75
2019-02-10T07:36:03.401Z,95.87
2019-02-10T07:38:45.375Z,95.73
2019-02-10T07:41:57.507Z,95.62
2019-02-10T07:45:00.237Z,95.63
2019-02-10T07:48:23.092Z,96.06
2019-02-10T07:51:33.015Z,96.19
2019-02-10T07:54:42.105Z,96.44
2019-02-10T07:57:45.179Z,96.57
2019-02-10T08:00:49.943Z,96.58
2019-02-10T08:04:22.181Z,97.26
2019-02-10T08:07:54.333Z,97.46
2019-02-10T08:11:11.438Z,97.82
2019-02-10T08:13:55.281Z,97.31
2019-02-10T08:17:24.979Z,97.05
2019-02-10T08:20:27.168Z,97.01
2019-02-10T08:23:32.853Z,97.31
2019-02-10T08:26:28.649Z,97.74
2019-02-10T08:29:46.663Z,97.72
2019-02-10T08:32:48.525Z,97.95
2019-02-10T08:35:54.546Z,98.42
2019-02-10T08:39:00.477Z,98.35
2019-02-10T08:42:07.635Z,98.52
2019-02-10T08:44:55.944Z,98.47
2019-02-10T08:47:40.662Z,98.58
2019-02-10T08:50:44.639Z,98.37
2019-02-10T08:53:40.993Z,98.06
2019-02-10T08:56:10.985Z,98.22
2019-02-10T08:58:40.979Z,98.07
2019-02-10T09:01:11.007Z,98.15
2019-02-10T09:03:40.961Z,98.51
2019-02-10T09:06:11.044Z,98.11
2019-02-10T09:08:41.078Z,98.27
2019-02-10T09:11:11.033Z,98.03
2019-02-10T09:13:41.096Z,97.94
2019-02-10T09:16:11.122Z,98.32
2019-02-10T09:18:41.137Z,98.14
2019-02-10T09:21:11.126Z,98.36
2019-02-10T09:23:42.213Z,98.22
2019-02-10T09:26:12.220Z,98.53
2019-02-10T09:28:42.215Z,98.46
2019-02-10T09:31:12.285Z,98.38
2019-02-10T09:33:42.314Z,98.14
2019-02-10T09:36:12.328Z,98.34
2019-02-10T09:38:42.301Z,98.26
2019-02-10T09:41:12.378Z,98.54
2019-02-10T09:43:42.411Z,98.68
2019-02-10T09:46:12.506Z,98.11
2019-02-10T09:48:42.617Z,98.62
2019-02-10T09:51:12.681Z,98.65
2019-02-10T09:53:42.912Z,99.10
2019-02-10T09:56:12.982Z,99.13
2019-02-10T09:58:43.087Z,98.79
2019-02-10T10:01:14.720Z,98.85
2019-02-10T10:03:44.962Z,98.99
2019-02-10T10:06:14.987Z,98.54
2019-02-10T10:08:45.009Z,98.82
2019-02-10T10:11:15.017Z,99.08
2019-02-10T10:13:45.015Z,98.87
2019-02-10T10:16:15.039Z,98.88
2019-02-10T10:18:45.060Z,99.08
2019-02-10T10:21:15.066Z,98.89
2019-02-10T10:23:45.104Z,99.38
2019-02-10T10:26:15.131Z,98.86
2019-02-10T10:28:45.131Z,99.20
2019-02-10T10:31:15.140Z,98.98
2019-02-10T10:33:45.398Z,98.92
2019-02-10T10:36:15.470Z,99.26
2019-02-10T10:38:45.491Z,99.47
2019-02-10T10:41:15.528Z,99.08
2019-02-10T10:43:45.561Z,99.86
2019-02-10T10:46:15.654Z,100.00
2019-02-10T10:48:45.672Z,100.00
2019-02-10T10:51:15.690Z,100.00
2019-02-10T10:53:45.728Z,100.00
2019-02-10T10:56:15.756Z,100.00
2019-02-10T10:58:45.790Z,100.00
2019-02-10T11:01:15.815Z,99.84
2019-02-10T11:03:45.890Z,100.00
2019-02-10T11:06:15.936Z,99.78
2019-02-10T11:08:45.967Z,100.00
2019-02-10T11:11:15.951Z,100.00
2019-02-10T11:13:46.321Z,100.00
2019-02-10T11:16:16.519Z,99.59
2019-02-10T11:18:46.572Z,99.72
2019-02-10T11:21:16.622Z,99.98
2019-02-10T11:23:46.676Z,99.78
2019-02-10T11:26:16.727Z,99.93
2019-02-10T11:28:46.731Z,99.55
2019-02-10T11:31:16.768Z,99.45
2019-02-10T11:33:46.769Z,99.50
2019-02-10T11:36:16.796Z,99.59
2019-02-10T11:38:46.798Z,100.00
2019-02-10T11:41:16.834Z,100.00
2019-02-10T11:43:46.839Z,99.94
2019-02-10T11:46:16.851Z,100.00
2019-02-10T11:48:46.908Z,100.00
2019-02-10T11:51:16.936Z,100.00
2019-02-10T11:53:46.950Z,100.00
2019-02-10T11:56:16.992Z,99.96
2019-02-10T11:58:47.060Z,100.00
2019-02-10T12:01:17.156Z,100.00
2019-02-10T12:03:47.172Z,100.00
2019-02-10T12:06:17.279Z,100.00
2019-02-10T12:08:47.308Z,100.00
2019-02-10T12:11:17.328Z,100.00
2019-02-10T12:13:47.352Z,100.00
2019-02-10T12:16:17.389Z,100.00
2019-02-10T12:18:47.358Z,100.00
2019-02-10T12:21:17.391Z,100.00
2019-02-10T12:23:47.394Z,100.00
2019-02-10T12:26:17.433Z,100.00
2019-02-10T12:28:47.468Z,100.00
2019-02-10T12:31:17.489Z,100.00
2019-02-10T12:33:47.491Z,100.00
2019-02-10T12:36:17.690Z,100.00
2019-02-10T12:38:47.685Z,100.00
2019-02-10T12:41:17.716Z,100.00
2019-02-10T12:43:47.777Z,100.00
2019-02-10T12:46:17.751Z,100.00
2019-02-10T12:48:47.763Z,100.00
2019-02-10T12:51:17.812Z,100.00
2019-02-10T12:53:47.823Z,100.00
2019-02-10T12:56:17.871Z,100.00
2019-02-10T12:58:47.910Z,100.00
2019-02-10T13:01:17.940Z,100.00
2019-02-10T13:03:48.024Z,100.00
2019-02-10T13:06:18.099Z,100.00
2019-02-10T13:08:48.075Z,100.00
2019-02-10T13:11:18.100Z,100.00
2019-02-10T13:13:48.113Z,100.00
2019-02-10T13:16:18.119Z,100.00
2019-02-10T13:18:48.143Z,100.00
2019-02-10T13:21:18.251Z,100.00
2019-02-10T13:23:48.328Z,100.00
2019-02-10T13:26:18.341Z,100.00
2019-02-10T13:28:48.760Z,100.00
2019-02-10T13:31:18.763Z,100.00
2019-02-10T13:33:48.771Z,100.00
2019-02-10T13:36:18.781Z,100.00
2019-02-10T13:38:48.819Z,100.00
2019-02-10T13:41:18.856Z,100.00
2019-02-10T13:43:48.863Z,100.00
2019-02-10T13:46:18.915Z,100.00
2019-02-10T13:48:48.975Z,100.00
2019-02-10T13:51:18.999Z,100.00
2019-02-10T13:53:49.049Z,100.00
2019-02-10T13:56:19.151Z,100.00
2019-02-10T13:58:49.165Z,100.00
2019-02-10T14:01:19.196Z,100.00
2019-02-10T14:03:49.176Z,100.00
2019-02-10T14:06:19.271Z,100.00
2019-02-10T14:08:49.313Z,100.00
2019-02-10T14:11:19.295Z,100.00
2019-02-10T14:13:49.434Z,100.00
2019-02-10T14:16:19.690Z,100.00
2019-02-10T14:18:49.697Z,100.00
2019-02-10T14:21:19.757Z,100.00
2019-02-10T14:23:49.782Z,100.00
2019-02-10T14:26:20.322Z,100.00
2019-02-10T14:28:50.307Z,100.00
2019-02-10T14:31:20.349Z,100.00
2019-02-10T14:33:50.352Z,100.00
2019-02-10T14:36:20.333Z,100.00
2019-02-10T14:38:50.335Z,100.00
2019-02-10T14:41:20.292Z,100.00
2019-02-10T14:43:50.284Z,100.00
2019-02-10T14:46:20.249Z,100.00
2019-02-10T14:48:50.253Z,100.00
2019-02-10T14:51:20.227Z,100.00
2019-02-10T14:53:50.601Z,100.00
2019-02-10T14:56:20.594Z,100.00
2019-02-10T14:58:50.623Z,100.00
2019-02-10T15:01:20.629Z,100.00
2019-02-10T15:03:50.675Z,100.00
2019-02-10T15:06:20.645Z,100.00
2019-02-10T15:08:50.666Z,100.00
2019-02-10T15:11:20.658Z,100.00
2019-02-10T15:13:50.657Z,100.00
2019-02-10T15:16:20.724Z,100.00
2019-02-10T15:18:50.697Z,100.00
2019-02-10T15:21:20.696Z,100.00
2019-02-10T15:23:50.652Z,100.00
2019-02-10T15:26:20.708Z,100.00
2019-02-10T15:28:50.677Z,100.00
2019-02-10T15:31:20.686Z,100.00
2019-02-10T15:33:50.681Z,100.00
2019-02-10T15:36:20.675Z,100.00
2019-02-10T15:38:50.678Z,100.00
2019-02-10T15:41:20.681Z,100.00
2019-02-10T15:43:50.693Z,100.00
2019-02-10T15:46:20.699Z,100.00
2019-02-10T15:48:50.729Z,100.00
2019-02-10T15:51:28.767Z,100.00
2019-02-10T15:53:52.499Z,100.00
2019-02-10T15:56:22.556Z,100.00
2019-02-10T15:58:52.574Z,100.00
2019-02-10T16:01:22.593Z,100.00
2019-02-10T16:03:52.578Z,100.00
2019-02-10T16:06:22.573Z,100.00
2019-02-10T16:08:52.725Z,100.00
2019-02-10T16:11:22.779Z,100.00
2019-02-10T16:13:52.798Z,100.00
2019-02-10T16:16:22.808Z,100.00
2019-02-10T16:18:52.818Z,100.00
2019-02-10T16:21:22.854Z,100.00
2019-02-10T16:23:52.879Z,100.00
2019-02-10T16:26:22.975Z,100.00
2019-02-10T16:28:53.006Z,100.00
2019-02-10T16:31:23.129Z,100.00
2019-02-10T16:33:53.152Z,100.00
2019-02-10T16:36:23.188Z,100.00
2019-02-10T16:38:53.170Z,99.93
2019-02-10T16:41:23.175Z,99.47
2019-02-10T16:43:53.170Z,98.16
2019-02-10T16:46:23.178Z,98.12
2019-02-10T16:48:53.262Z,97.76
2019-02-10T16:51:23.456Z,97.39
2019-02-10T16:53:53.438Z,97.23
2019-02-10T16:56:23.458Z,97.07
2019-02-10T16:58:53.506Z,97.04
2019-02-10T17:01:23.501Z,97.08
2019-02-10T17:03:53.737Z,97.21
2019-02-10T17:06:23.751Z,97.58
2019-02-10T17:08:54.199Z,96.60
2019-02-10T17:11:24.230Z,96.84
2019-02-10T17:13:54.262Z,96.14
2019-02-10T17:16:24.273Z,96.15
2019-02-10T17:18:54.318Z,95.88
2019-02-10T17:21:24.375Z,95.70
2019-02-10T17:23:54.392Z,95.64
2019-02-10T17:26:24.454Z,94.44
2019-02-10T17:28:54.466Z,94.89
2019-02-10T17:31:24.513Z,94.42
2019-02-10T17:33:54.501Z,94.75
2019-02-10T17:36:24.548Z,94.82
2019-02-10T17:38:54.598Z,94.05
2019-02-10T17:41:36.882Z,93.84
2019-02-10T17:44:06.934Z,94.03
2019-02-10T17:46:36.945Z,93.93
2019-02-10T17:49:06.945Z,92.79
2019-02-10T17:51:37.022Z,93.20
2019-02-10T17:54:07.062Z,93.39
2019-02-10T17:56:37.098Z,92.63
2019-02-10T17:59:07.170Z,93.00
2019-02-10T18:01:37.192Z,93.10
2019-02-10T18:04:07.211Z,92.22
2019-02-10T18:06:37.339Z,91.42
2019-02-10T18:09:08.414Z,91.46
2019-02-10T18:11:38.429Z,90.89
2019-02-10T18:14:22.974Z,91.19
2019-02-10T18:17:10.553Z,90.66
2019-02-10T18:19:49.818Z,90.69
2019-02-10T18:22:28.326Z,90.40
2019-02-10T18:25:07.335Z,90.62
2019-02-10T18:27:49.025Z,90.38
2019-02-10T18:30:53.121Z,90.21
2019-02-10T18:33:41.267Z,90.27
2019-02-10T18:36:28.970Z,90.85
2019-02-10T18:39:05.726Z,90.20
2019-02-10T18:42:00.695Z,90.78
2019-02-10T18:44:58.795Z,89.99
2019-02-10T18:47:47.723Z,90.56
2019-02-10T18:50:37.047Z,90.79
2019-02-10T18:53:29.275Z,90.24
2019-02-10T18:56:14.181Z,90.05
2019-02-10T18:59:02.017Z,89.97
2019-02-10T19:02:00.252Z,90.14
2019-02-10T19:04:43.850Z,89.31
2019-02-10T19:07:20.954Z,89.21
2019-02-10T19:10:09.000Z,88.78
2019-02-10T19:13:00.899Z,89.03
2019-02-10T19:15:49.925Z,88.91
2019-02-10T19:18:32.305Z,88.75
2019-02-10T19:21:14.126Z,89.01
2019-02-10T19:24:12.398Z,89.16
2019-02-10T19:27:00.385Z,89.18
2019-02-10T19:30:02.322Z,89.32
2019-02-10T19:32:56.572Z,89.34
2019-02-10T19:35:51.387Z,89.27
2019-02-10T19:38:40.408Z,89.25
2019-02-10T19:41:41.685Z,89.84
2019-02-10T19:44:29.285Z,89.07
2019-02-10T19:47:08.378Z,89.40
2019-02-10T19:49:56.187Z,89.35
2019-02-10T19:52:43.816Z,89.57
2019-02-10T19:55:26.015Z,90.10
2019-02-10T19:58:06.617Z,89.78
2019-02-10T20:00:55.586Z,90.12
2019-02-10T20:03:43.426Z,90.44
2019-02-10T20:06:38.621Z,90.67
2019-02-10T20:09:27.628Z,90.88
2019-02-10T20:12:22.760Z,90.85
2019-02-10T20:15:03.749Z,90.75
2019-02-10T20:18:10.779Z,90.82
2019-02-10T20:20:50.049Z,90.50
2019-02-10T20:23:37.770Z,90.83
2019-02-10T20:26:25.411Z,91.36
2019-02-10T20:29:17.566Z,91.12
2019-02-10T20:32:05.317Z,91.20
2019-02-10T20:35:02.787Z,91.88
2019-02-10T20:38:00.336Z,92.35
2019-02-10T20:41:04.601Z,92.55
2019-02-10T20:43:56.702Z,92.66
2019-02-10T20:46:37.091Z,93.03
2019-02-10T20:49:28.886Z,93.57
2019-02-10T20:52:26.735Z,93.54
2019-02-10T20:55:13.875Z,94.26
2019-02-10T20:57:52.073Z,94.36
2019-02-10T21:00:39.938Z,94.73
2019-02-10T21:03:40.948Z,94.55
2019-02-10T21:06:17.472Z,94.93
2019-02-10T21:09:21.549Z,95.54
2019-02-10T21:12:22.776Z,95.97
2019-02-10T21:15:11.788Z,95.91
2019-02-10T21:17:52.221Z,96.65
2019-02-10T21:20:38.303Z,97.35
2019-02-10T21:23:18.369Z,96.75
2019-02-10T21:26:09.459Z,97.54
2019-02-10T21:29:13.769Z,96.89
2019-02-10T21:32:02.174Z,97.38
2019-02-10T21:34:49.828Z,96.94
2019-02-10T21:37:37.516Z,96.91
2019-02-10T21:40:17.102Z,97.75
2019-02-10T21:43:11.152Z,97.79
2019-02-10T21:45:58.827Z,97.89
2019-02-10T21:48:47.780Z,97.64
2019-02-10T21:51:17.819Z,97.45
2019-02-10T21:53:47.825Z,98.07
2019-02-10T21:56:17.850Z,97.44
2019-02-10T21:58:48.067Z,96.32
2019-02-10T22:01:18.071Z,96.66
2019-02-10T22:03:48.089Z,97.19
2019-02-10T22:06:18.084Z,97.31
2019-02-10T22:08:48.158Z,97.44
2019-02-10T22:11:18.127Z,97.00
2019-02-10T22:13:48.150Z,97.50
2019-02-10T22:16:18.143Z,96.68
2019-02-10T22:18:48.124Z,97.09
2019-02-10T22:21:18.120Z,96.89
2019-02-10T22:23:48.139Z,96.63
2019-02-10T22:26:18.102Z,97.38
2019-02-10T22:28:48.131Z,97.30
2019-02-10T22:31:19.092Z,97.24
2019-02-10T22:33:51.618Z,96.94
2019-02-10T22:36:21.086Z,96.51
2019-02-10T22:38:51.046Z,97.27
2019-02-10T22:41:21.330Z,97.29
2019-02-10T22:43:51.350Z,96.77
2019-02-10T22:46:21.381Z,96.92
2019-02-10T22:48:51.357Z,98.10
2019-02-10T22:51:21.354Z,97.46
2019-02-10T22:53:51.455Z,98.05
2019-02-10T22:56:21.448Z,97.71
2019-02-10T22:58:51.538Z,97.74
2019-02-10T23:01:21.620Z,98.05
2019-02-10T23:03:51.632Z,98.08
2019-02-10T23:06:21.690Z,98.17
2019-02-10T23:08:51.714Z,98.22
2019-02-10T23:11:22.075Z,98.04
2019-02-10T23:13:52.134Z,97.78
2019-02-10T23:16:22.130Z,98.25
2019-02-10T23:18:52.099Z,97.67
2019-02-10T23:21:22.138Z,98.42
2019-02-10T23:23:52.124Z,98.31
2019-02-10T23:26:22.404Z,98.43
2019-02-10T23:28:52.438Z,98.68
2019-02-10T23:31:22.430Z,99.61
2019-02-10T23:33:52.400Z,99.85
2019-02-10T23:36:22.431Z,100.00
2019-02-10T23:38:52.479Z,100.00
2019-02-10T23:41:22.481Z,100.00
2019-02-10T23:43:52.476Z,100.00
2019-02-10T23:46:22.434Z,100.00
2019-02-10T23:48:52.812Z,100.00
2019-02-10T23:51:23.190Z,100.00
2019-02-10T23:53:53.210Z,100.00
2019-02-10T23:56:23.266Z,100.00
2019-02-10T23:58:53.248Z,100.00
